Tropical Cyclones
[Index]
Main Index Home Page Stock Weather Photos Extreme Storms Discussion Storm News and Storm Chasing Reports Tropical Cyclones / Hurricanes / Typhoons Weather Data and Links Wild Fires / Bushfires Weather Observation Techniques Weather Picture Catalogue Tornado Pictures and Reports Stock Video Footage and DVDs for sale
Season 1984-1985 Tropical Cyclone ISOBEL Track Map
Season 1984-1985 Summaries: [BoM-AU] [JTWC-AU] [JTWC-SIO] [JTWC-SPAC] [JTWC-SH]
<<- Previous TC | JTWC 1984-1985 Season | Next TC ->>

click for intensity scale information  Lat/long Grid: Show Hide

 Date Labels: Show Hide

Joint Typhoon Warning Centre Cyclone Data

Name: ISOBEL

13 Feb 1985 06:00 UTC to 21 Feb 1985 06:00 UTC

    date/time    lat    long     hPa   cat  kts
1985-02-13 06   12.0   101.2                  25          
1985-02-13 12   12.4   100.0                  25          
1985-02-13 18   12.7    99.7                  30          
1985-02-14 00   13.0   100.3                  35          
1985-02-14 06   13.2   100.8            1     40          
1985-02-14 12   13.1   101.2            1     40          
1985-02-14 18   13.0   101.6            1     40          
1985-02-15 00   12.9   102.1            1     40          
1985-02-15 06   12.9   102.6            1     40          
1985-02-15 12   12.9   103.2            1     40          
1985-02-15 18   13.0   103.8            1     45          
1985-02-16 00   13.3   104.4            1     45          
1985-02-16 06   13.8   105.0            1     45          
1985-02-16 12   14.4   105.5            1     50          
1985-02-16 18   14.9   105.5            1     50          
1985-02-17 00   15.4   104.9            1     50          
1985-02-17 06   15.9   104.2            1     45          
1985-02-17 12   16.3   103.7            1     45          
1985-02-17 18   16.7   103.1            1     45          
1985-02-18 00   17.1   102.5            1     45          
1985-02-18 06   17.5   101.9            1     45          
1985-02-18 12   18.0   101.3            1     45          
1985-02-18 18   18.5   100.7            1     45          
1985-02-19 00   19.1   100.2            1     45          
1985-02-19 06   19.6    99.9            1     40          
1985-02-19 12   20.1    99.5            1     40          
1985-02-19 18   20.6    99.2            1     40          
1985-02-20 00   21.1    98.8            1     40          
1985-02-20 06   21.7    98.2            1     40          
1985-02-20 12   22.4    97.3            1     40          
1985-02-20 18   23.4    96.4                  35          
1985-02-21 00   24.5    95.5                  35          
1985-02-21 06   25.9    94.5                  30          
Winds are 1-min average.

Tropical cyclone tracks developed by Michael Bath using data from the Joint Typhoon Warning Centre Best Tracks and Google Maps.


[Australian Severe Weather index] [Copyright Notice] [Email Contacts] [Search This Site] [Privacy Policy]
Document: tropical_cyclone_isobel.htm Updated: 18 September 2016